Eastwood, New York
Current Conditions -  °F | °C
As of 9:54 AM on Saturday 22 Nov 2014 (Local Time) from KSYR Reporting Station
Broken Clouds Broken Clouds  
Wind Chill: 28°   Ceiling: 12000
Heat Index: 36°   Visibility: 10mi
Dew Point:   Wind: 12mph
Humidity: 31%   Direction: 180°S
Pressure: 30.23"   Gusts: NA
Location:  43.0734°N, 76.106°W
Report Text: KSYR 221454Z 18010KT 10SM SCT080 BKN120 02/M13 A3023 RMK AO2 SLP239 T00221133 58024 VISNO NW $
Loading
Personal Weather Stations






























Interactive Weather Map New forecast layout! Learn more

10-Day Weather Forecast

Advertisements
Track Severe Weather on mobile